EHEH/EIN METAR and TAF weather

Enter ICAO airport designator
Station Type Date Time Source
EHEH METAR 2020/02/26 08:25 UTC NOAA

EHEH 260825Z AUTO 23008KT 220V280 8000 BR FEW004 BKN021 BKN026 02/01 Q0997 WHT 24008KT 9999 SCT015 BKN020 TEMPO 27015G25KT 4000 SHRAGS FEW005 SCT008 BKN015CB


Station Type Date Time Source
EHEH Decoded METAR 2020/02/26 08:25 UTC NOAA

Eindhoven, Netherlands (EHEH) 51-27N 005-25E 28M
Feb 26, 2020 - 03:25 AM EST / 2020.02.26 0825 UTC
Wind: from the SW (230 degrees) at 9 MPH (8 KT) (direction variable):0
Visibility: 4 mile(s):0
Sky conditions: mostly cloudy
Weather: mist; Cumulonimbus clouds observed
Temperature: 35 F (2 C)
Windchill: 28 F (-2 C):1
Dew Point: 33 F (1 C)
Relative Humidity: 93%
Pressure (altimeter): 29.44 in. Hg (0997 hPa)
ob: EHEH 260825Z AUTO 23008KT 220V280 8000 BR FEW004 BKN021 BKN026 02/01 Q0997 WHT 24008KT 9999 SCT015 BKN020 TEMPO 27015G25KT 4000 SHRAGS FEW005 SCT008 BKN015CB
cycle: 8

Station Type Date Time Source
EHEH TAF 2020/02/26 06:33 UTC NOAA

TAF TAF EHEH 260502Z 2606/2712 24006KT 9999 SCT005 BKN008
BECMG 2606/2608 28012KT SCT018 BKN022
TEMPO 2606/2608 3000 SHRA RA BKN005 BKN008 SCT018CB PROB30
TEMPO 2606/2607 23015G25KT 0800 SHSN SN SCT002 BKN004 BKN015CB
TEMPO 2608/2615 4500 SHRA FEW008 SCT018CB BKN020 PROB40
TEMPO 2608/2615 28015G25KT 3000 SHRAGS TSRAGS SCT008 SCT015CB BKN020 PROB30
TEMPO 2615/2621 4800 SHRA FEW012 SCT020CB BKN025
BECMG 2618/2621 23007KT
TEMPO 2621/2701 4800 SHRA SCT012 SCT020CB BKN025 PROB40
TEMPO 2621/2701 2000 SHRA SHRASN FEW005 SCT010 BKN018CB
BECMG 2707/2710 3000 RASN BKN006 OVC015
TEMPO 2707/2712 1500 SNRA SCT002 OVC008
BECMG 2710/2712 12008KT

Example: see airport list